Time;durP1;ratioP1;P1;durP2;ratioP2;P2;SDS_P1;SDS_P2;PMS_P1;PMS_P2;Temp;Humidity;BMP_temperature;BMP_pressure;BME280_temperature;BME280_humidity;BME280_pressure;Samples;Min_cycle;Max_cycle;Signal;HPM_P1;HPM_P2
2023/09/20 00:01:13;;;;;;;9.40;4.18;;;16.70;99.90;;;;;;4974704;28;20042;-71
2023/09/20 00:03:39;;;;;;;9.00;3.80;;;16.70;99.90;;;;;;4974052;28;20512;-71
2023/09/20 00:06:09;;;;;;;8.68;4.22;;;16.70;99.90;;;;;;4973508;28;20042;-71
2023/09/20 00:08:35;;;;;;;9.02;3.30;;;16.80;99.90;;;;;;4975035;28;20084;-70
2023/09/20 00:11:01;;;;;;;7.90;3.63;;;16.80;99.90;;;;;;4974949;28;20034;-71
2023/09/20 00:13:27;;;;;;;7.88;3.67;;;16.80;99.90;;;;;;4990387;28;20034;-70
2023/09/20 00:15:55;;;;;;;7.45;3.67;;;16.80;99.90;;;;;;4991441;28;20527;-71
2023/09/20 00:18:24;;;;;;;9.13;4.00;;;16.80;99.90;;;;;;4990545;28;20137;-71
2023/09/20 00:20:51;;;;;;;10.95;3.95;;;16.80;99.90;;;;;;4974279;28;20092;-71
2023/09/20 00:23:20;;;;;;;8.30;3.30;;;16.80;99.90;;;;;;4989204;28;20105;-70
2023/09/20 00:25:49;;;;;;;13.57;4.47;;;16.90;99.90;;;;;;4991598;28;20046;-70
2023/09/20 00:28:17;;;;;;;9.45;3.80;;;16.90;99.90;;;;;;4990950;28;20156;-71
2023/09/20 00:30:45;;;;;;;9.60;3.95;;;16.90;99.90;;;;;;4975158;28;20053;-72
2023/09/20 00:33:11;;;;;;;7.15;3.47;;;16.90;99.90;;;;;;4974606;28;20042;-71
2023/09/20 00:35:40;;;;;;;10.45;3.80;;;16.90;99.90;;;;;;4990697;28;20042;-71
2023/09/20 00:38:06;;;;;;;7.10;3.80;;;16.90;99.90;;;;;;4990750;28;20409;-72
2023/09/20 00:40:35;;;;;;;10.05;3.88;;;16.90;99.90;;;;;;4990932;28;20117;-70
2023/09/20 00:43:03;;;;;;;8.10;3.65;;;16.90;99.90;;;;;;4988774;28;20108;-71
2023/09/20 00:45:29;;;;;;;7.93;3.63;;;16.90;99.90;;;;;;4987849;28;20113;-71
2023/09/20 00:47:57;;;;;;;10.77;3.78;;;16.90;99.90;;;;;;4987730;28;20129;-69
2023/09/20 00:50:28;;;;;;;11.43;4.32;;;16.90;99.90;;;;;;4990927;28;20090;-70
2023/09/20 00:52:55;;;;;;;10.02;3.42;;;16.90;99.90;;;;;;4991355;28;20034;-70
2023/09/20 00:55:27;;;;;;;6.78;4.00;;;16.90;99.90;;;;;;4989874;28;20034;-70
2023/09/20 00:57:56;;;;;;;9.73;3.45;;;16.90;99.90;;;;;;4990135;28;20235;-70
2023/09/20 01:00:29;;;;;;;10.35;3.95;;;16.90;99.90;;;;;;4987160;28;20421;-70
2023/09/20 01:02:57;;;;;;;10.60;3.63;;;16.90;99.90;;;;;;4990140;28;20069;-70
2023/09/20 01:05:28;;;;;;;9.85;4.00;;;16.90;99.90;;;;;;4988872;28;20046;-70
2023/09/20 01:08:13;;;;;;;9.20;3.80;;;17.00;99.90;;;;;;4988791;28;20401;-70
2023/09/20 01:10:40;;;;;;;9.45;3.83;;;16.90;99.90;;;;;;4988068;28;20034;-70
2023/09/20 01:13:26;;;;;;;9.57;3.80;;;16.90;99.90;;;;;;4988604;28;20050;-71
2023/09/20 01:15:53;;;;;;;10.90;4.13;;;16.90;99.90;;;;;;4972893;28;20096;-70
2023/09/20 01:18:18;;;;;;;9.95;4.05;;;16.90;99.90;;;;;;4989426;28;20105;-71
2023/09/20 01:20:44;;;;;;;9.90;3.83;;;16.90;99.90;;;;;;4988372;28;20421;-71
2023/09/20 01:23:10;;;;;;;9.07;4.07;;;16.90;99.90;;;;;;4988754;28;20049;-70
2023/09/20 01:25:39;;;;;;;7.65;3.65;;;17.00;99.90;;;;;;4986831;28;20042;-70
2023/09/20 01:28:08;;;;;;;8.95;3.70;;;16.90;99.90;;;;;;4990815;28;20053;-71
2023/09/20 01:30:38;;;;;;;10.88;3.80;;;17.00;99.90;;;;;;4986810;28;20161;-71
2023/09/20 01:33:06;;;;;;;8.07;3.85;;;16.90;99.90;;;;;;4988924;28;20077;-71
2023/09/20 01:35:33;;;;;;;10.05;3.90;;;17.00;99.90;;;;;;4971291;28;20041;-71
2023/09/20 01:37:59;;;;;;;8.07;3.30;;;17.00;99.90;;;;;;4990038;28;20046;-70
2023/09/20 01:40:26;;;;;;;9.50;4.15;;;17.00;99.90;;;;;;4986928;28;20046;-70
2023/09/20 01:42:59;;;;;;;10.60;4.03;;;17.00;99.90;;;;;;4989236;28;20039;-70
2023/09/20 01:45:25;;;;;;;9.10;4.10;;;17.00;99.90;;;;;;4972132;28;20038;-71
2023/09/20 01:47:54;;;;;;;8.50;4.00;;;17.00;99.90;;;;;;4989772;28;20066;-70
2023/09/20 01:50:24;;;;;;;10.15;3.58;;;17.00;99.90;;;;;;4991973;28;20126;-71
2023/09/20 01:52:50;;;;;;;11.52;3.92;;;17.00;99.90;;;;;;4964287;28;20077;-71
2023/09/20 01:55:20;;;;;;;14.52;3.55;;;17.00;99.90;;;;;;4989139;28;21303;-71
2023/09/20 01:57:52;;;;;;;8.15;3.40;;;17.00;99.90;;;;;;4992095;28;20390;-71
2023/09/20 02:00:36;;;;;;;7.03;3.53;;;17.00;99.90;;;;;;4983082;28;20050;-71
2023/09/20 02:03:08;;;;;;;10.23;3.90;;;17.00;99.90;;;;;;4980927;28;20117;-70
2023/09/20 02:05:36;;;;;;;7.25;3.63;;;17.00;99.90;;;;;;4982044;28;20053;-71
2023/09/20 02:08:03;;;;;;;10.30;3.83;;;17.00;99.90;;;;;;4991230;28;20081;-71
2023/09/20 02:10:29;;;;;;;10.40;3.50;;;17.00;99.90;;;;;;4982878;28;20057;-70
2023/09/20 02:12:56;;;;;;;9.98;3.30;;;17.10;99.90;;;;;;4973536;28;20050;-71
2023/09/20 02:15:24;;;;;;;6.38;3.20;;;17.10;99.90;;;;;;4990262;28;20066;-70
2023/09/20 02:17:50;;;;;;;6.22;3.05;;;17.10;99.90;;;;;;4988003;28;20061;-71
2023/09/20 02:20:20;;;;;;;8.30;3.22;;;17.10;99.90;;;;;;4990286;28;20066;-71
2023/09/20 02:22:47;;;;;;;6.88;3.50;;;17.10;99.90;;;;;;4988968;28;20109;-71
2023/09/20 02:25:14;;;;;;;8.60;3.70;;;17.10;99.90;;;;;;4988353;28;20525;-70
2023/09/20 02:27:44;;;;;;;12.55;3.88;;;17.20;99.90;;;;;;4986710;28;20125;-71
2023/09/20 02:30:15;;;;;;;7.72;3.45;;;17.20;99.90;;;;;;4984465;28;20517;-71
2023/09/20 02:32:41;;;;;;;8.43;3.58;;;17.10;99.90;;;;;;5000917;28;20043;-71
2023/09/20 02:35:07;;;;;;;5.80;3.50;;;17.20;99.90;;;;;;4989069;28;20394;-71
2023/09/20 02:37:34;;;;;;;7.68;3.67;;;17.20;99.90;;;;;;4986300;28;20092;-70
2023/09/20 02:40:00;;;;;;;10.95;3.40;;;17.20;99.90;;;;;;4972712;28;20050;-70
2023/09/20 02:42:26;;;;;;;9.93;3.90;;;17.10;99.90;;;;;;4987874;28;20393;-71
2023/09/20 02:44:53;;;;;;;9.80;3.50;;;17.10;99.90;;;;;;4972565;28;20049;-71
2023/09/20 02:47:19;;;;;;;11.35;3.78;;;17.20;99.90;;;;;;4971039;28;20046;-71
2023/09/20 02:49:48;;;;;;;9.23;3.88;;;17.20;99.90;;;;;;4956580;28;20413;-71
2023/09/20 02:52:17;;;;;;;6.88;3.72;;;17.20;99.90;;;;;;4987502;28;20038;-70
2023/09/20 02:54:43;;;;;;;10.25;3.85;;;17.20;99.90;;;;;;4988415;28;20057;-72
2023/09/20 02:57:11;;;;;;;8.80;3.60;;;17.20;99.90;;;;;;4971839;28;20034;-71
2023/09/20 02:59:38;;;;;;;8.50;4.15;;;17.10;99.90;;;;;;4986959;28;20603;-71
2023/09/20 03:02:05;;;;;;;8.75;3.42;;;17.10;99.90;;;;;;4992318;28;20046;-71
2023/09/20 03:04:31;;;;;;;10.75;3.35;;;17.10;99.90;;;;;;4988501;28;20042;-70
2023/09/20 03:06:56;;;;;;;14.32;4.03;;;17.10;99.90;;;;;;4989900;28;20034;-71
2023/09/20 03:09:24;;;;;;;10.13;3.65;;;17.10;99.90;;;;;;4975398;28;20046;-70
2023/09/20 03:11:55;;;;;;;10.27;3.33;;;17.10;99.90;;;;;;4990804;28;20045;-71
2023/09/20 03:14:23;;;;;;;12.23;3.90;;;17.10;99.90;;;;;;4992674;28;20121;-70
2023/09/20 03:16:49;;;;;;;10.38;3.80;;;17.00;99.90;;;;;;4991528;28;20459;-70
2023/09/20 03:19:15;;;;;;;8.15;3.83;;;17.00;99.90;;;;;;4974549;28;20074;-70
2023/09/20 03:21:43;;;;;;;8.85;3.80;;;17.00;99.90;;;;;;4992618;28;20045;-71
2023/09/20 03:24:09;;;;;;;8.30;4.07;;;17.00;99.90;;;;;;4974568;28;20037;-71
2023/09/20 03:26:37;;;;;;;10.65;4.10;;;17.00;99.90;;;;;;4992730;28;20034;-71
2023/09/20 03:29:04;;;;;;;8.57;3.80;;;17.00;99.90;;;;;;4958752;28;20051;-71
2023/09/20 03:31:33;;;;;;;9.70;3.35;;;16.90;99.90;;;;;;4975478;28;20049;-70
2023/09/20 03:34:03;;;;;;;11.50;3.70;;;16.90;99.90;;;;;;4990484;28;20523;-70
2023/09/20 03:36:29;;;;;;;10.93;3.83;;;16.90;99.90;;;;;;4959838;28;20086;-70
2023/09/20 03:38:57;;;;;;;6.82;3.47;;;16.90;99.90;;;;;;4992306;28;20473;-70
2023/09/20 03:41:26;;;;;;;7.82;3.33;;;16.90;99.90;;;;;;4991711;28;20105;-70
2023/09/20 03:43:52;;;;;;;10.60;4.10;;;16.90;99.90;;;;;;4991526;28;20046;-70
2023/09/20 03:46:18;;;;;;;9.98;4.00;;;16.90;99.90;;;;;;4992536;28;20597;-70
2023/09/20 03:48:44;;;;;;;7.28;3.40;;;16.80;99.90;;;;;;4990423;28;20050;-70
2023/09/20 03:51:16;;;;;;;6.88;4.03;;;16.80;99.90;;;;;;4991562;28;20038;-70
2023/09/20 03:53:43;;;;;;;7.60;4.05;;;16.80;99.90;;;;;;4992374;28;20078;-71
2023/09/20 03:56:11;;;;;;;7.60;3.72;;;16.80;99.90;;;;;;4989955;28;20039;-70
2023/09/20 03:58:38;;;;;;;12.95;3.63;;;16.70;99.90;;;;;;4989741;28;20046;-71
2023/09/20 04:01:04;;;;;;;8.65;3.80;;;16.60;99.90;;;;;;4973653;28;20039;-71
2023/09/20 04:03:29;;;;;;;9.15;4.07;;;16.60;99.90;;;;;;4990363;28;20121;-71
2023/09/20 04:05:57;;;;;;;10.35;3.88;;;16.60;99.90;;;;;;4992742;28;20445;-71
2023/09/20 04:08:23;;;;;;;10.52;4.18;;;16.50;99.90;;;;;;4991466;28;20117;-71
2023/09/20 04:10:49;;;;;;;10.20;3.92;;;16.50;99.90;;;;;;4972502;28;20077;-71
2023/09/20 04:13:14;;;;;;;7.10;3.60;;;16.50;99.90;;;;;;4991220;28;20074;-71
2023/09/20 04:15:42;;;;;;;7.97;3.65;;;16.50;99.90;;;;;;4986989;28;20056;-71
2023/09/20 04:18:09;;;;;;;8.73;3.88;;;16.40;99.90;;;;;;4959351;28;20121;-71
2023/09/20 04:20:35;;;;;;;7.75;3.95;;;16.40;99.90;;;;;;4989663;28;20053;-71
2023/09/20 04:23:02;;;;;;;8.77;3.85;;;16.30;99.90;;;;;;4990243;28;20034;-71
2023/09/20 04:25:28;;;;;;;11.07;3.78;;;16.30;99.90;;;;;;4974966;28;20397;-73
2023/09/20 04:27:54;;;;;;;8.20;3.83;;;16.20;99.90;;;;;;4990922;28;20050;-71
2023/09/20 04:30:20;;;;;;;12.63;3.70;;;16.20;99.90;;;;;;4988517;28;20485;-72
2023/09/20 04:32:46;;;;;;;9.60;3.72;;;16.10;99.90;;;;;;4959122;28;20114;-73
2023/09/20 04:35:12;;;;;;;7.53;3.75;;;16.10;99.90;;;;;;4986326;28;20542;-72
2023/09/20 04:37:38;;;;;;;10.77;3.88;;;16.00;99.90;;;;;;4989980;28;20383;-72
2023/09/20 04:40:07;;;;;;;9.27;4.07;;;16.00;99.90;;;;;;4990477;28;20436;-72
2023/09/20 04:42:35;;;;;;;12.98;4.45;;;15.90;99.90;;;;;;4974642;28;20046;-71
2023/09/20 04:45:06;;;;;;;8.00;3.70;;;15.80;99.90;;;;;;4987832;28;20038;-72
2023/09/20 04:47:35;;;;;;;8.90;4.05;;;15.90;99.90;;;;;;4973575;28;20041;-72
2023/09/20 04:50:02;;;;;;;10.60;4.00;;;15.80;99.90;;;;;;4987577;28;20405;-71
2023/09/20 04:52:28;;;;;;;9.63;4.03;;;15.80;99.90;;;;;;4990575;28;20460;-72
2023/09/20 04:54:54;;;;;;;9.57;3.65;;;15.80;99.90;;;;;;4989379;28;20158;-72
2023/09/20 04:57:20;;;;;;;9.18;3.85;;;15.80;99.90;;;;;;4990019;28;20042;-71
2023/09/20 04:59:46;;;;;;;7.32;3.90;;;15.70;99.90;;;;;;4972463;28;20166;-70
2023/09/20 05:02:13;;;;;;;11.80;4.22;;;15.70;99.90;;;;;;4989851;28;20432;-72
2023/09/20 05:04:40;;;;;;;8.75;3.60;;;15.70;99.90;;;;;;4990536;28;20130;-71
2023/09/20 05:07:06;;;;;;;7.47;3.60;;;15.60;99.90;;;;;;4971371;28;20075;-71
2023/09/20 05:09:35;;;;;;;7.40;3.53;;;15.70;99.90;;;;;;4971268;28;20038;-72
2023/09/20 05:12:02;;;;;;;9.65;4.13;;;15.60;99.90;;;;;;4988873;28;20113;-71
2023/09/20 05:14:28;;;;;;;6.55;3.63;;;15.60;99.90;;;;;;4989858;28;20057;-71
2023/09/20 05:16:54;;;;;;;8.45;3.70;;;15.60;99.90;;;;;;4970931;28;20046;-71
2023/09/20 05:19:22;;;;;;;8.98;4.07;;;15.60;99.90;;;;;;4970563;28;20100;-71
2023/09/20 05:21:48;;;;;;;8.95;3.75;;;15.60;99.90;;;;;;4972342;28;20078;-71
2023/09/20 05:24:14;;;;;;;6.25;3.42;;;15.60;99.90;;;;;;4989518;28;20069;-71
2023/09/20 05:26:40;;;;;;;7.85;3.60;;;15.60;99.90;;;;;;4990138;28;20626;-71
2023/09/20 05:29:05;;;;;;;7.32;3.55;;;15.60;99.90;;;;;;4988758;28;20096;-71
2023/09/20 05:31:32;;;;;;;7.85;3.85;;;15.60;99.90;;;;;;4988640;28;20517;-71
2023/09/20 05:33:59;;;;;;;7.78;3.38;;;15.60;99.90;;;;;;4956903;28;20085;-71
2023/09/20 05:36:27;;;;;;;7.10;3.42;;;15.60;99.90;;;;;;4971699;28;20104;-71
2023/09/20 05:38:55;;;;;;;8.90;3.85;;;15.60;99.90;;;;;;4990116;28;20046;-71
2023/09/20 05:41:22;;;;;;;8.68;3.92;;;15.60;99.90;;;;;;4986388;28;20046;-71
2023/09/20 05:43:48;;;;;;;5.50;3.15;;;15.60;99.90;;;;;;4968978;28;20038;-71
2023/09/20 05:46:14;;;;;;;7.03;3.20;;;15.60;99.90;;;;;;4985914;28;20106;-70
2023/09/20 05:48:41;;;;;;;6.07;3.47;;;15.70;99.90;;;;;;4986630;28;20035;-71
2023/09/20 05:51:08;;;;;;;6.78;3.83;;;15.70;99.90;;;;;;4984626;28;20058;-70
2023/09/20 05:53:33;;;;;;;7.55;3.58;;;15.70;99.90;;;;;;4983514;28;20042;-71
2023/09/20 05:56:11;;;;;;;7.90;3.50;;;15.70;99.90;;;;;;4984891;28;20038;-70
2023/09/20 05:58:38;;;;;;;6.28;3.47;;;15.70;99.90;;;;;;4982002;28;20057;-71
2023/09/20 06:01:05;;;;;;;8.43;3.80;;;15.70;99.90;;;;;;4984018;28;20405;-72
2023/09/20 06:03:30;;;;;;;6.05;3.30;;;15.70;99.90;;;;;;4955532;28;20050;-71
2023/09/20 06:05:56;;;;;;;11.93;3.70;;;15.70;99.90;;;;;;4970751;28;20125;-71
2023/09/20 06:08:22;;;;;;;8.00;3.22;;;15.80;99.90;;;;;;4989922;28;20497;-70
2023/09/20 06:10:48;;;;;;;6.75;3.47;;;15.80;99.90;;;;;;4972712;28;20058;-71
2023/09/20 06:13:14;;;;;;;6.90;3.38;;;15.90;99.90;;;;;;4972717;28;20058;-72
2023/09/20 06:15:40;;;;;;;8.85;3.55;;;15.90;99.90;;;;;;4955927;28;20038;-70
2023/09/20 06:18:08;;;;;;;7.22;4.18;;;15.90;99.90;;;;;;4970812;28;20055;-71
2023/09/20 06:20:36;;;;;;;7.72;3.58;;;15.90;99.90;;;;;;4987842;28;20397;-71
2023/09/20 06:23:03;;;;;;;5.80;3.58;;;16.00;99.90;;;;;;4984562;28;20044;-71
2023/09/20 06:25:29;;;;;;;8.05;3.90;;;16.00;99.90;;;;;;4982000;28;20054;-71
2023/09/20 06:27:55;;;;;;;4.93;3.35;;;16.10;99.90;;;;;;4974196;28;20414;-71
2023/09/20 06:30:21;;;;;;;7.28;3.60;;;16.10;99.90;;;;;;4992324;28;20073;-71
2023/09/20 06:32:48;;;;;;;9.88;4.10;;;16.20;99.90;;;;;;4991475;28;20381;-71
2023/09/20 06:35:22;;;;;;;6.80;3.75;;;16.20;99.90;;;;;;4990480;28;20035;-71
2023/09/20 06:37:48;;;;;;;8.70;3.60;;;16.30;99.90;;;;;;4981784;28;20050;-71
2023/09/20 06:40:26;;;;;;;7.95;3.47;;;16.30;99.90;;;;;;4995007;28;20070;-74
2023/09/20 06:42:52;;;;;;;7.97;4.22;;;16.30;99.90;;;;;;4956006;28;20568;-71
2023/09/20 06:45:19;;;;;;;7.57;3.72;;;16.40;99.90;;;;;;4995929;28;20493;-71
2023/09/20 06:47:45;;;;;;;10.02;4.05;;;16.40;99.90;;;;;;4994585;28;20050;-71
2023/09/20 06:50:15;;;;;;;6.90;3.85;;;16.50;99.90;;;;;;4985220;28;20492;-71
2023/09/20 06:52:46;;;;;;;11.32;3.95;;;16.40;99.90;;;;;;4994711;28;20038;-71
2023/09/20 06:55:13;;;;;;;6.72;3.70;;;16.50;99.90;;;;;;4994998;28;20038;-70
2023/09/20 06:57:40;;;;;;;9.68;4.15;;;16.50;99.90;;;;;;4993800;28;20672;-72
2023/09/20 07:00:21;;;;;;;9.77;3.78;;;16.60;99.90;;;;;;4992481;28;20042;-71
2023/09/20 07:02:49;;;;;;;10.82;4.30;;;16.60;99.90;;;;;;4983635;28;20397;-71
2023/09/20 07:05:16;;;;;;;9.00;3.75;;;16.70;99.90;;;;;;5001347;28;20374;-70
2023/09/20 07:07:42;;;;;;;9.73;4.40;;;16.70;99.90;;;;;;4987671;28;20051;-71
2023/09/20 07:10:09;;;;;;;8.73;4.13;;;16.80;99.90;;;;;;4989020;28;20461;-71
2023/09/20 07:12:38;;;;;;;7.53;4.13;;;16.80;99.90;;;;;;4994023;28;20489;-71
2023/09/20 07:15:06;;;;;;;9.02;3.90;;;16.80;99.90;;;;;;4977907;28;20038;-71
2023/09/20 07:17:32;;;;;;;11.13;4.00;;;16.90;99.90;;;;;;4993715;28;20500;-71
2023/09/20 07:19:58;;;;;;;9.82;4.10;;;16.90;99.90;;;;;;4995112;28;20042;-71
2023/09/20 07:22:24;;;;;;;8.73;4.13;;;16.90;99.90;;;;;;4993227;28;20042;-71
2023/09/20 07:24:54;;;;;;;9.98;4.22;;;17.00;99.90;;;;;;4994998;28;20124;-70
2023/09/20 07:27:20;;;;;;;9.82;4.05;;;17.00;99.90;;;;;;4977739;28;20097;-71
2023/09/20 07:29:49;;;;;;;12.45;4.30;;;17.00;99.90;;;;;;4994834;28;20065;-72
2023/09/20 07:32:15;;;;;;;7.85;3.88;;;17.00;99.90;;;;;;4993759;28;20125;-71
2023/09/20 07:34:41;;;;;;;8.35;4.25;;;17.00;99.90;;;;;;4993974;28;20038;-71
2023/09/20 07:37:07;;;;;;;14.88;4.68;;;17.00;99.90;;;;;;4961473;28;20058;-71
2023/09/20 07:39:33;;;;;;;9.35;4.35;;;17.10;99.90;;;;;;4961199;28;20030;-71
2023/09/20 07:41:59;;;;;;;9.05;3.97;;;17.10;99.90;;;;;;4958219;28;20043;-72
2023/09/20 07:44:30;;;;;;;9.68;4.05;;;17.20;99.90;;;;;;4974351;28;20176;-71
2023/09/20 07:47:00;;;;;;;8.13;3.63;;;17.30;99.90;;;;;;4993800;28;20054;-71
2023/09/20 07:49:25;;;;;;;7.30;4.00;;;17.40;99.90;;;;;;4993118;28;20061;-71
2023/09/20 07:51:53;;;;;;;10.48;4.10;;;17.50;99.90;;;;;;4993453;28;20046;-72
2023/09/20 07:54:20;;;;;;;7.25;3.58;;;17.60;99.90;;;;;;4994824;28;20073;-71
2023/09/20 07:56:52;;;;;;;10.32;3.90;;;17.90;99.90;;;;;;4977060;28;20053;-71
2023/09/20 07:59:23;;;;;;;7.55;3.70;;;18.00;99.90;;;;;;4993173;28;20390;-71
2023/09/20 08:01:50;;;;;;;7.25;3.80;;;18.20;99.90;;;;;;4993159;28;20394;-71
2023/09/20 08:04:17;;;;;;;6.38;4.00;;;18.40;99.90;;;;;;4993225;28;20047;-72
2023/09/20 08:06:43;;;;;;;7.28;3.90;;;18.60;99.90;;;;;;4979158;28;20449;-71
2023/09/20 08:09:09;;;;;;;9.65;4.15;;;18.80;99.90;;;;;;4983926;28;20046;-72
2023/09/20 08:11:35;;;;;;;8.77;3.58;;;18.90;99.90;;;;;;4965213;28;20490;-71
2023/09/20 08:14:05;;;;;;;12.18;4.57;;;18.90;99.90;;;;;;4985682;28;20046;-71
2023/09/20 08:16:35;;;;;;;10.30;3.90;;;19.00;99.90;;;;;;4994519;28;20038;-72
2023/09/20 08:21:38;;;;;;;7.40;3.30;;;18.90;99.90;;;;;;4977277;28;20042;-71
2023/09/20 09:00:31;;;;;;;7.70;3.30;;;18.90;99.90;;;;;;4993437;28;20034;-71
2023/09/20 09:03:03;;;;;;;7.47;3.17;;;18.80;99.90;;;;;;4992350;28;20050;-72
2023/09/20 09:05:29;;;;;;;9.07;3.17;;;18.80;99.90;;;;;;4992365;28;20038;-70
2023/09/20 09:08:03;;;;;;;5.85;2.85;;;18.80;99.90;;;;;;4983643;28;20046;-71
2023/09/20 09:10:29;;;;;;;7.25;3.67;;;18.90;99.90;;;;;;4959165;28;20053;-70
2023/09/20 09:12:55;;;;;;;5.70;2.97;;;19.00;99.90;;;;;;4993566;28;20121;-71
2023/09/20 09:15:23;;;;;;;4.30;2.55;;;19.00;99.90;;;;;;4962429;28;20118;-71
2023/09/20 09:18:04;;;;;;;6.30;3.00;;;19.00;99.90;;;;;;4973746;28;20126;-71
2023/09/20 09:20:33;;;;;;;5.15;3.20;;;19.00;99.90;;;;;;4973593;28;20034;-72
2023/09/20 09:22:59;;;;;;;4.20;2.72;;;19.00;99.90;;;;;;4986615;28;20101;-74
2023/09/20 09:25:30;;;;;;;5.97;2.50;;;19.00;99.90;;;;;;4987195;28;20038;-70
2023/09/20 09:27:56;;;;;;;5.73;2.47;;;18.90;99.90;;;;;;4992853;28;20200;-72
2023/09/20 09:30:22;;;;;;;6.72;3.10;;;18.90;99.90;;;;;;4981622;28;20843;-71
2023/09/20 09:32:48;;;;;;;4.97;2.40;;;18.90;99.90;;;;;;4988977;28;20278;-71
2023/09/20 09:35:19;;;;;;;5.80;2.70;;;18.90;99.90;;;;;;4976044;28;20101;-72
2023/09/20 09:37:45;;;;;;;6.93;2.60;;;18.90;99.90;;;;;;4982143;28;20046;-71
2023/09/20 09:40:14;;;;;;;5.72;3.20;;;18.90;99.90;;;;;;4985159;28;20509;-71
2023/09/20 09:42:43;;;;;;;4.32;2.70;;;18.90;99.90;;;;;;4982369;28;20046;-72
2023/09/20 09:45:09;;;;;;;5.72;2.63;;;18.80;99.90;;;;;;4991612;28;20646;-71
2023/09/20 09:47:36;;;;;;;4.35;2.47;;;18.80;99.90;;;;;;4991307;28;20043;-71
2023/09/20 09:50:04;;;;;;;3.97;2.28;;;18.80;99.90;;;;;;4974815;28;20081;-71
2023/09/20 09:52:30;;;;;;;4.10;2.60;;;18.70;99.90;;;;;;4992608;28;20042;-71
2023/09/20 09:54:56;;;;;;;5.18;2.80;;;18.70;99.90;;;;;;4987637;28;20046;-71
2023/09/20 09:57:23;;;;;;;4.13;2.45;;;18.70;99.90;;;;;;4985191;28;20504;-71
2023/09/20 09:59:53;;;;;;;4.60;2.55;;;18.60;99.90;;;;;;4971028;28;20481;-71
2023/09/20 10:02:21;;;;;;;4.32;2.50;;;18.60;99.90;;;;;;4987752;28;20069;-71
2023/09/20 10:05:02;;;;;;;5.03;2.42;;;18.60;99.90;;;;;;4987660;28;20110;-71
2023/09/20 10:07:31;;;;;;;6.18;2.75;;;18.60;99.90;;;;;;4959367;28;20042;-71
2023/09/20 10:10:08;;;;;;;3.78;2.55;;;18.50;99.90;;;;;;4979385;28;20046;-72
2023/09/20 10:12:36;;;;;;;4.80;2.40;;;18.60;99.90;;;;;;4987410;28;20077;-71
2023/09/20 10:15:07;;;;;;;3.85;2.50;;;18.60;99.90;;;;;;4982723;28;20046;-72
2023/09/20 10:17:34;;;;;;;5.38;2.40;;;18.60;99.90;;;;;;4973330;28;20122;-71
2023/09/20 10:20:05;;;;;;;4.72;2.40;;;18.70;99.90;;;;;;4982883;28;20074;-71
2023/09/20 10:22:35;;;;;;;6.85;2.75;;;18.70;99.90;;;;;;4974389;28;20035;-71
2023/09/20 10:25:01;;;;;;;9.68;3.17;;;18.80;99.90;;;;;;4977147;28;20074;-71
2023/09/20 10:27:31;;;;;;;3.72;2.70;;;18.90;99.90;;;;;;4972683;28;20129;-72
2023/09/20 10:30:09;;;;;;;5.47;2.72;;;19.00;99.90;;;;;;4975431;28;20286;-64
2023/09/20 10:32:55;;;;;;;4.57;2.60;;;19.00;99.90;;;;;;4992055;28;20042;-64
2023/09/20 10:35:34;;;;;;;4.90;2.70;;;19.00;99.90;;;;;;4992478;28;20042;-65
2023/09/20 10:38:09;;;;;;;6.63;2.90;;;19.00;99.90;;;;;;4976798;28;20046;-65
2023/09/20 10:40:44;;;;;;;3.70;2.60;;;19.10;99.90;;;;;;4990920;28;20049;-64
2023/09/20 10:43:10;;;;;;;5.03;2.30;;;19.10;99.90;;;;;;4972935;28;20066;-64
2023/09/20 10:45:36;;;;;;;4.07;2.40;;;19.20;99.90;;;;;;4981852;28;20112;-64
2023/09/20 10:48:06;;;;;;;4.18;2.90;;;19.20;99.90;;;;;;4990822;28;20049;-64
2023/09/20 10:50:48;;;;;;;6.22;2.72;;;19.20;99.90;;;;;;4958619;28;20516;-64
2023/09/20 10:53:14;;;;;;;6.82;3.00;;;19.20;99.90;;;;;;4988202;28;20505;-64
2023/09/20 10:55:40;;;;;;;5.93;2.50;;;19.20;99.90;;;;;;4991563;28;20038;-64
2023/09/20 10:58:07;;;;;;;4.07;2.50;;;19.20;99.90;;;;;;4990435;28;20053;-64
2023/09/20 11:00:35;;;;;;;5.40;2.85;;;19.20;99.90;;;;;;4971298;28;20031;-65
2023/09/20 11:03:07;;;;;;;5.97;2.75;;;19.30;99.90;;;;;;4985217;28;20038;-63
2023/09/20 11:05:34;;;;;;;4.93;2.53;;;19.30;99.90;;;;;;4991496;28;20031;-64
2023/09/20 11:08:08;;;;;;;4.72;2.90;;;19.40;99.90;;;;;;4982148;28;20043;-64
2023/09/20 11:10:40;;;;;;;6.15;3.15;;;19.30;99.90;;;;;;4974647;28;20065;-64
2023/09/20 11:13:10;;;;;;;5.75;2.70;;;19.40;99.90;;;;;;4991779;28;20670;-64
2023/09/20 11:15:43;;;;;;;5.20;2.88;;;19.40;99.90;;;;;;4989868;28;20086;-64
2023/09/20 11:18:09;;;;;;;5.15;2.42;;;19.40;99.90;;;;;;4991082;28;20465;-64
2023/09/20 11:20:36;;;;;;;4.68;2.60;;;19.50;99.90;;;;;;4991977;28;20048;-64
2023/09/20 11:23:02;;;;;;;6.82;2.85;;;19.60;99.90;;;;;;4970903;28;20038;-64
2023/09/20 11:25:29;;;;;;;5.40;3.00;;;19.60;99.90;;;;;;4988978;28;20038;-64
2023/09/20 11:27:56;;;;;;;5.18;2.50;;;19.50;99.90;;;;;;4989786;28;20106;-64
2023/09/20 11:30:29;;;;;;;6.75;2.78;;;19.60;99.90;;;;;;4974525;28;20050;-65
2023/09/20 11:33:01;;;;;;;6.10;3.08;;;19.70;99.90;;;;;;4974650;28;20046;-64
2023/09/20 11:35:34;;;;;;;5.45;2.78;;;19.70;99.90;;;;;;4969869;28;20050;-64
2023/09/20 11:38:07;;;;;;;5.95;2.85;;;19.70;99.90;;;;;;4978875;28;20572;-64
2023/09/20 11:40:37;;;;;;;4.95;2.92;;;19.70;99.90;;;;;;4994992;28;20057;-64
2023/09/20 11:43:06;;;;;;;3.85;3.13;;;19.60;99.90;;;;;;4993271;28;20034;-64
2023/09/20 11:45:35;;;;;;;4.65;2.72;;;19.60;99.90;;;;;;4987004;28;20039;-64
2023/09/20 11:48:08;;;;;;;6.47;3.22;;;19.60;99.90;;;;;;4993239;28;20513;-64
2023/09/20 11:50:34;;;;;;;5.57;3.03;;;19.60;99.90;;;;;;4979099;28;20047;-65
2023/09/20 12:00:54;;;;;;;5.95;3.40;;;19.80;99.90;;;;;;4976433;28;20384;-64
2023/09/20 12:03:20;;;;;;;6.43;3.60;;;19.90;99.90;;;;;;4984156;28;20061;-64
2023/09/20 12:06:28;;;;;;;10.48;3.58;;;19.90;99.90;;;;;;4994624;28;20045;-71
2023/09/20 12:08:54;;;;;;;7.25;3.88;;;19.90;99.90;;;;;;5040869;23;20144;-76
2023/09/20 12:11:21;;;;;;;5.30;3.00;;;20.00;99.90;;;;;;4993010;28;20207;-75
2023/09/20 12:13:47;;;;;;;6.35;3.55;;;20.10;99.90;;;;;;4994661;28;20138;-75
2023/09/20 12:16:14;;;;;;;6.40;3.20;;;20.20;99.90;;;;;;4993445;28;20125;-76
2023/09/20 12:18:42;;;;;;;5.18;3.28;;;20.30;99.90;;;;;;5019015;28;20045;-75
2023/09/20 12:21:08;;;;;;;8.38;3.92;;;20.50;99.90;;;;;;5001754;28;20200;-75
2023/09/20 12:23:35;;;;;;;6.10;3.35;;;20.70;99.90;;;;;;5018014;28;20038;-76
2023/09/20 12:26:03;;;;;;;4.95;3.67;;;20.70;99.90;;;;;;5003085;28;20081;-78
2023/09/20 12:28:30;;;;;;;6.22;4.78;;;20.80;99.90;;;;;;4988738;28;20034;-79
2023/09/20 12:30:58;;;;;;;11.30;8.88;;;20.80;99.90;;;;;;5021261;28;20035;-77
2023/09/20 12:33:24;;;;;;;13.93;10.05;;;20.80;99.90;;;;;;5010513;28;20129;-77
2023/09/20 12:35:54;;;;;;;6.68;3.40;;;20.90;99.90;;;;;;5026010;28;20077;-77
2023/09/20 12:38:20;;;;;;;4.60;3.25;;;20.90;99.90;;;;;;4996107;28;20036;-76
2023/09/20 12:40:47;;;;;;;6.07;3.00;;;21.00;99.90;;;;;;5015879;28;20057;-77
2023/09/20 12:43:17;;;;;;;4.88;2.92;;;21.00;99.90;;;;;;5033208;28;20060;-76
2023/09/20 12:45:43;;;;;;;12.95;11.73;;;21.20;99.90;;;;;;5009476;28;20064;-77
2023/09/20 12:48:10;;;;;;;5.50;3.58;;;21.20;99.90;;;;;;4988498;28;20510;-76
2023/09/20 12:50:37;;;;;;;9.32;5.38;;;21.20;99.90;;;;;;4994354;28;20070;-77
2023/09/20 12:53:06;;;;;;;13.18;11.63;;;21.20;99.90;;;;;;4987724;28;20444;-76
2023/09/20 12:55:35;;;;;;;28.23;25.02;;;21.30;99.90;;;;;;4967360;28;20231;-77
2023/09/20 12:58:01;;;;;;;5.45;3.47;;;21.30;99.90;;;;;;4989913;28;20607;-78
2023/09/20 13:00:27;;;;;;;5.07;3.97;;;21.20;99.90;;;;;;4972380;28;20401;-77
2023/09/20 13:02:55;;;;;;;4.47;3.05;;;21.10;99.90;;;;;;4968739;28;20038;-77
2023/09/20 13:05:22;;;;;;;8.60;6.03;;;21.10;99.90;;;;;;4964169;28;20042;-78
2023/09/20 13:07:48;;;;;;;7.15;3.90;;;21.20;99.90;;;;;;4978216;28;20696;-77
2023/09/20 13:10:14;;;;;;;21.95;19.92;;;21.20;99.90;;;;;;4971874;28;20058;-78
2023/09/20 13:12:41;;;;;;;79.75;71.50;;;21.30;99.90;;;;;;4970710;28;20037;-78
2023/09/20 13:15:14;;;;;;;20.25;18.17;;;21.40;99.90;;;;;;4984551;28;20589;-78
2023/09/20 13:17:44;;;;;;;5.85;4.32;;;21.60;99.90;;;;;;4970571;28;20034;-78
2023/09/20 13:20:13;;;;;;;9.90;8.40;;;21.70;99.90;;;;;;4970288;28;20069;-79
2023/09/20 13:22:42;;;;;;;3.63;2.90;;;21.80;99.90;;;;;;4986663;28;20034;-78
2023/09/20 13:25:09;;;;;;;56.55;51.33;;;21.70;99.90;;;;;;4991528;28;20046;-77
2023/09/20 13:27:35;;;;;;;10.52;8.10;;;21.70;99.90;;;;;;4960982;28;20037;-78
2023/09/20 13:30:07;;;;;;;12.88;10.77;;;21.60;99.90;;;;;;4962314;28;20045;-78
2023/09/20 13:32:32;;;;;;;7.13;3.33;;;21.70;99.90;;;;;;4962855;28;20044;-78
2023/09/20 13:34:58;;;;;;;5.35;2.90;;;21.70;99.90;;;;;;4973648;28;20273;-78
2023/09/20 13:37:24;;;;;;;6.28;3.35;;;21.60;99.90;;;;;;4965214;28;20049;-78